createdAt,value
2023-02-03T00:00:12.089Z,4.13
2023-02-03T00:06:34.528Z,3.70
2023-02-03T00:12:35.095Z,4.10
2023-02-03T00:18:35.649Z,3.55
2023-02-03T00:24:37.500Z,3.92
2023-02-03T00:30:38.203Z,3.10
2023-02-03T00:36:39.050Z,2.67
2023-02-03T00:42:41.438Z,3.17
2023-02-03T00:48:42.296Z,2.50
2023-02-03T00:54:42.876Z,2.72
2023-02-03T01:00:44.929Z,3.60
2023-02-03T01:06:45.602Z,3.35
2023-02-03T01:12:46.060Z,4.20
2023-02-03T01:18:48.012Z,2.63
2023-02-03T01:24:48.983Z,2.97
2023-02-03T01:30:49.534Z,2.08
2023-02-03T01:36:51.610Z,3.17
2023-02-03T01:42:53.439Z,3.85
2023-02-03T01:48:56.589Z,2.75
2023-02-03T01:55:00.543Z,2.13
2023-02-03T02:01:02.592Z,1.27
2023-02-03T02:07:04.035Z,3.80
2023-02-03T02:19:42.789Z,2.17
2023-02-03T02:26:04.414Z,0.95
2023-02-03T02:32:29.134Z,1.92
2023-02-03T02:38:38.894Z,1.67
2023-02-03T02:44:43.647Z,1.80
2023-02-03T02:50:53.779Z,1.42
2023-02-03T02:56:57.843Z,2.05
2023-02-03T03:03:06.874Z,1.83
2023-02-03T03:09:12.288Z,1.92
2023-02-03T03:15:18.244Z,0.88
2023-02-03T03:21:22.626Z,2.50
2023-02-03T03:27:29.825Z,1.08
2023-02-03T03:33:30.747Z,0.88
2023-02-03T03:39:43.110Z,1.58
2023-02-03T03:45:52.973Z,0.80
2023-02-03T03:51:58.375Z,1.40
2023-02-03T03:58:03.437Z,0.80
2023-02-03T04:04:11.101Z,1.48
2023-02-03T05:23:12.091Z,1.63
2023-02-03T05:28:14.117Z,1.35
2023-02-03T05:33:16.230Z,1.10
2023-02-03T05:39:18.067Z,0.75
2023-02-03T05:45:18.779Z,0.90
2023-02-03T05:50:22.735Z,1.42
2023-02-03T05:55:26.131Z,1.42
2023-02-03T06:00:29.124Z,1.27
2023-02-03T06:05:32.683Z,1.13
2023-02-03T06:11:35.688Z,1.23
2023-02-03T06:17:01.361Z,0.73
2023-02-03T06:22:03.409Z,0.73
2023-02-03T06:27:06.754Z,0.90
2023-02-03T06:32:09.278Z,0.95
2023-02-03T06:37:11.275Z,0.73
2023-02-03T06:42:15.293Z,0.50
2023-02-03T06:48:16.033Z,0.75
2023-02-03T06:54:16.486Z,0.40
2023-02-03T07:00:19.438Z,0.82
2023-02-03T07:06:20.189Z,0.35
2023-02-03T07:12:20.674Z,1.50
2023-02-03T07:24:46.954Z,1.23
2023-02-03T07:30:48.430Z,1.52
2023-02-03T07:36:51.626Z,0.90
2023-02-03T07:41:53.588Z,1.77
2023-02-03T07:46:55.564Z,1.10
2023-02-03T07:51:58.909Z,0.80
2023-02-03T07:57:01.155Z,1.30
2023-02-03T08:03:01.596Z,1.20
2023-02-03T08:09:04.209Z,0.68
2023-02-03T08:15:05.583Z,1.08
2023-02-03T08:21:06.828Z,1.30
2023-02-03T08:27:08.850Z,1.98
2023-02-03T08:33:10.009Z,1.35
2023-02-03T08:39:10.969Z,1.85
2023-02-03T08:45:12.902Z,1.42
2023-02-03T08:51:14.352Z,1.45
2023-02-03T08:57:15.370Z,1.80
2023-02-03T09:03:18.015Z,0.90
2023-02-03T09:09:18.765Z,1.33
2023-02-03T09:15:19.727Z,0.95
2023-02-03T09:27:36.848Z,1.48
2023-02-03T09:33:37.884Z,0.80
2023-02-03T09:39:40.079Z,0.95
2023-02-03T09:45:43.560Z,1.60
2023-02-03T09:51:49.359Z,1.23
2023-02-03T09:57:56.945Z,1.30
2023-02-03T10:04:05.618Z,1.67
2023-02-03T10:10:22.634Z,1.15
2023-02-03T10:16:53.583Z,1.27
2023-02-03T10:22:59.685Z,0.93
2023-02-03T10:29:05.076Z,0.88
2023-02-03T10:37:49.786Z,0.93
2023-02-03T10:43:51.778Z,0.95
2023-02-03T10:49:53.399Z,0.90
2023-02-03T11:02:38.938Z,0.95
2023-02-03T11:07:40.857Z,0.60
2023-02-03T11:12:42.897Z,0.80
2023-02-03T11:17:46.189Z,0.98
2023-02-03T11:22:48.452Z,0.73
2023-02-03T11:27:50.333Z,1.30
2023-02-03T11:36:52.724Z,0.30
2023-02-03T11:43:01.013Z,1.17
2023-02-03T11:49:14.109Z,0.63
2023-02-03T11:55:32.685Z,0.38
2023-02-03T12:01:52.163Z,0.43
2023-02-03T12:08:06.295Z,0.73
2023-02-03T12:14:25.124Z,0.90
2023-02-03T12:24:35.834Z,1.30
2023-02-03T12:30:39.559Z,1.30
2023-02-03T12:36:47.837Z,0.47
2023-02-03T12:42:55.897Z,0.90
2023-02-03T12:49:02.005Z,1.27
2023-02-03T12:55:16.050Z,0.98
2023-02-03T13:01:28.115Z,0.65
2023-02-03T13:07:36.209Z,0.90
2023-02-03T13:13:43.967Z,0.82
2023-02-03T13:19:50.866Z,0.70
2023-02-03T13:25:59.388Z,0.30
2023-02-03T13:32:21.696Z,0.70
2023-02-03T13:38:58.845Z,0.30
2023-02-03T13:45:02.970Z,0.70
2023-02-03T13:51:07.179Z,0.80
2023-02-03T13:57:20.997Z,0.55
2023-02-03T14:03:48.598Z,0.47
2023-02-03T14:10:05.336Z,0.30
2023-02-03T14:16:23.927Z,0.68
2023-02-03T14:22:25.059Z,0.55
2023-02-03T14:28:36.619Z,1.00
2023-02-03T14:34:49.604Z,2.35
2023-02-03T14:41:18.728Z,1.55
2023-02-03T14:47:28.933Z,1.08
2023-02-03T14:53:51.476Z,0.70
2023-02-03T14:59:56.569Z,1.10
2023-02-03T15:06:37.069Z,1.00
2023-02-03T15:12:47.775Z,1.10
2023-02-03T15:18:53.952Z,1.48
2023-02-03T15:24:55.676Z,1.10
2023-02-03T15:31:00.040Z,1.40
2023-02-03T15:37:07.491Z,1.02
2023-02-03T15:43:16.078Z,1.30
2023-02-03T15:49:27.602Z,2.42
2023-02-03T15:55:33.388Z,2.78
2023-02-03T16:01:35.950Z,3.50
2023-02-03T16:07:38.256Z,3.55
2023-02-03T16:13:43.032Z,1.70
2023-02-03T16:19:53.312Z,0.85
2023-02-03T16:26:01.960Z,1.27
2023-02-03T16:32:36.860Z,1.98
2023-02-03T16:39:02.882Z,1.38
2023-02-03T16:51:36.964Z,2.80
2023-02-03T16:57:37.464Z,2.83
2023-02-03T17:03:39.358Z,3.60
2023-02-03T17:09:40.507Z,2.92
2023-02-03T17:15:41.757Z,3.20
2023-02-03T17:21:44.020Z,3.38
2023-02-03T17:27:44.517Z,2.45
2023-02-03T17:33:45.514Z,3.45
2023-02-03T17:58:45.729Z,3.42
2023-02-03T18:04:47.241Z,2.17
2023-02-03T18:10:47.779Z,2.80
2023-02-03T18:16:49.767Z,2.50
2023-02-03T18:22:50.299Z,4.93
2023-02-03T18:28:53.194Z,5.30
2023-02-03T18:34:55.036Z,2.78
2023-02-03T18:40:55.552Z,4.32
2023-02-03T18:46:57.062Z,3.35
2023-02-03T18:52:58.954Z,5.07
2023-02-03T18:58:59.428Z,4.93
2023-02-03T19:05:00.536Z,4.53
2023-02-03T19:11:02.528Z,3.83
2023-02-03T19:17:03.710Z,2.60
2023-02-03T19:23:08.330Z,3.03
2023-02-03T19:29:11.209Z,1.77
2023-02-03T19:35:15.310Z,4.00
2023-02-03T19:41:16.047Z,4.57
2023-02-03T19:47:18.096Z,3.67
2023-02-03T19:53:18.801Z,3.22
2023-02-03T19:59:19.486Z,4.10
2023-02-03T20:05:21.820Z,4.63
2023-02-03T20:11:22.578Z,2.85
2023-02-03T20:17:23.184Z,3.47
2023-02-03T20:23:25.517Z,4.20
2023-02-03T20:29:26.439Z,5.03
2023-02-03T20:34:34.174Z,5.18
2023-02-03T20:39:37.843Z,3.15
2023-02-03T20:44:41.123Z,5.53
2023-02-03T20:49:44.541Z,4.05
2023-02-03T20:54:48.017Z,5.63
2023-02-03T20:59:50.279Z,3.03
2023-02-03T21:05:23.103Z,4.90
2023-02-03T21:10:26.458Z,5.32
2023-02-03T21:16:33.836Z,5.43
2023-02-03T21:22:35.556Z,6.53
2023-02-03T21:28:37.444Z,2.75
2023-02-03T21:34:42.030Z,4.03
2023-02-03T21:40:42.548Z,2.28
2023-02-03T21:46:44.397Z,5.47
2023-02-03T21:52:44.903Z,3.60
2023-02-03T21:58:47.476Z,3.00
2023-02-03T22:04:50.041Z,4.50
2023-02-03T22:10:50.542Z,5.30
2023-02-03T22:16:53.880Z,3.80
2023-02-03T22:22:55.827Z,2.92
2023-02-03T22:28:56.303Z,2.15
2023-02-03T22:34:56.851Z,4.15
2023-02-03T22:40:58.823Z,4.47
2023-02-03T22:46:59.330Z,5.07
2023-02-03T22:53:00.001Z,2.75
2023-02-03T22:59:02.187Z,4.10
2023-02-03T23:05:02.721Z,4.45
2023-02-03T23:11:03.987Z,5.10
2023-02-03T23:17:06.192Z,3.30
2023-02-03T23:23:06.986Z,3.72
2023-02-03T23:29:07.595Z,4.82
2023-02-03T23:35:28.039Z,3.85
2023-02-03T23:41:28.550Z,2.20
2023-02-03T23:47:29.017Z,4.43
2023-02-03T23:53:31.309Z,2.25
2023-02-03T23:59:31.802Z,1.48
